createdAt,value
2023-01-28T00:00:12.829Z,100.00
2023-01-28T00:02:41.351Z,100.00
2023-01-28T00:05:10.459Z,100.00
2023-01-28T00:07:38.926Z,100.00
2023-01-28T00:10:08.671Z,100.00
2023-01-28T00:12:37.115Z,100.00
2023-01-28T00:15:08.707Z,100.00
2023-01-28T00:17:37.333Z,100.00
2023-01-28T00:20:06.846Z,100.00
2023-01-28T00:22:35.230Z,100.00
2023-01-28T00:25:03.793Z,100.00
2023-01-28T00:27:32.170Z,100.00
2023-01-28T00:30:00.634Z,100.00
2023-01-28T00:32:30.464Z,100.00
2023-01-28T00:34:58.903Z,100.00
2023-01-28T00:37:27.360Z,100.00
2023-01-28T00:39:55.878Z,100.00
2023-01-28T00:42:26.187Z,100.00
2023-01-28T00:44:57.434Z,100.00
2023-01-28T00:47:25.802Z,100.00
2023-01-28T00:49:56.106Z,100.00
2023-01-28T00:52:24.571Z,100.00
2023-01-28T00:54:52.940Z,100.00
2023-01-28T00:57:21.316Z,100.00
2023-01-28T00:59:49.779Z,100.00
2023-01-28T01:02:20.213Z,100.00
2023-01-28T01:04:59.479Z,100.00
2023-01-28T01:07:42.097Z,100.00
2023-01-28T01:10:12.615Z,100.00
2023-01-28T01:12:41.469Z,100.00
2023-01-28T01:15:13.278Z,100.00
2023-01-28T01:17:45.401Z,100.00
2023-01-28T01:20:17.741Z,100.00
2023-01-28T01:22:47.614Z,100.00
2023-01-28T01:25:18.644Z,100.00
2023-01-28T01:27:49.965Z,100.00
2023-01-28T01:30:21.383Z,100.00
2023-01-28T01:32:49.865Z,99.95
2023-01-28T01:35:18.777Z,100.00
2023-01-28T01:37:48.691Z,99.88
2023-01-28T01:40:17.806Z,100.00
2023-01-28T01:42:46.179Z,99.99
2023-01-28T01:45:17.459Z,99.72
2023-01-28T01:47:53.564Z,99.80
2023-01-28T01:50:29.128Z,99.70
2023-01-28T01:53:03.685Z,99.65
2023-01-28T01:55:37.935Z,99.55
2023-01-28T01:58:12.317Z,100.00
2023-01-28T02:00:41.776Z,100.00
2023-01-28T02:03:11.666Z,99.80
2023-01-28T02:05:41.263Z,100.00
2023-01-28T02:08:26.590Z,100.00
2023-01-28T02:11:01.032Z,100.00
2023-01-28T02:13:34.278Z,100.00
2023-01-28T02:16:04.527Z,100.00
2023-01-28T02:18:34.170Z,100.00
2023-01-28T02:21:55.631Z,100.00
2023-01-28T02:25:09.184Z,100.00
2023-01-28T02:27:52.423Z,100.00
2023-01-28T02:30:29.470Z,100.00
2023-01-28T02:33:02.574Z,100.00
2023-01-28T02:35:36.861Z,100.00
2023-01-28T02:38:11.115Z,100.00
2023-01-28T02:40:57.895Z,100.00
2023-01-28T02:43:37.360Z,100.00
2023-01-28T02:46:37.195Z,100.00
2023-01-28T02:49:11.173Z,100.00
2023-01-28T02:51:59.077Z,100.00
2023-01-28T02:54:39.471Z,100.00
2023-01-28T02:57:22.478Z,100.00
2023-01-28T02:59:59.987Z,100.00
2023-01-28T03:02:37.931Z,100.00
2023-01-28T03:05:13.178Z,100.00
2023-01-28T03:07:42.837Z,100.00
2023-01-28T03:10:17.083Z,100.00
2023-01-28T03:13:05.465Z,100.00
2023-01-28T03:16:00.389Z,100.00
2023-01-28T03:18:52.408Z,100.00
2023-01-28T03:21:44.026Z,100.00
2023-01-28T03:24:36.015Z,100.00
2023-01-28T03:27:33.286Z,100.00
2023-01-28T03:30:32.417Z,100.00
2023-01-28T03:33:25.112Z,100.00
2023-01-28T03:36:11.591Z,100.00
2023-01-28T03:38:43.146Z,100.00
2023-01-28T03:41:21.637Z,100.00
2023-01-28T03:43:50.781Z,100.00
2023-01-28T03:46:18.581Z,100.00
2023-01-28T03:48:48.585Z,100.00
2023-01-28T03:51:17.998Z,100.00
2023-01-28T03:53:46.565Z,100.00
2023-01-28T03:56:19.580Z,100.00
2023-01-28T03:58:53.790Z,100.00
2023-01-28T04:01:22.882Z,100.00
2023-01-28T04:03:52.974Z,100.00
2023-01-28T04:06:29.005Z,100.00
2023-01-28T04:09:09.890Z,100.00
2023-01-28T04:12:02.650Z,100.00
2023-01-28T04:14:37.208Z,100.00
2023-01-28T04:17:10.905Z,100.00
2023-01-28T04:19:42.005Z,100.00
2023-01-28T04:22:12.563Z,100.00
2023-01-28T04:24:42.566Z,100.00
2023-01-28T04:27:11.000Z,100.00
2023-01-28T04:29:39.559Z,100.00
2023-01-28T04:32:34.157Z,100.00
2023-01-28T04:35:09.425Z,100.00
2023-01-28T04:37:49.623Z,100.00
2023-01-28T04:40:38.298Z,100.00
2023-01-28T04:43:12.117Z,99.91
2023-01-28T04:45:53.013Z,100.00
2023-01-28T04:48:36.601Z,99.82
2023-01-28T04:51:18.059Z,99.99
2023-01-28T04:54:05.270Z,99.93
2023-01-28T04:56:36.046Z,99.77
2023-01-28T04:59:05.700Z,99.24
2023-01-28T05:01:35.869Z,99.06
2023-01-28T05:04:06.442Z,99.40
2023-01-28T05:06:39.628Z,99.42
2023-01-28T05:09:11.837Z,99.34
2023-01-28T05:11:40.346Z,99.08
2023-01-28T05:14:09.732Z,98.32
2023-01-28T05:16:45.033Z,98.53
2023-01-28T05:19:13.880Z,98.85
2023-01-28T05:21:45.330Z,98.91
2023-01-28T05:24:25.304Z,98.73
2023-01-28T05:26:55.095Z,98.35
2023-01-28T05:29:23.479Z,98.40
2023-01-28T05:31:51.894Z,97.57
2023-01-28T05:34:20.934Z,97.55
2023-01-28T05:36:51.229Z,97.74
2023-01-28T05:39:33.877Z,97.47
2023-01-28T05:42:02.434Z,97.34
2023-01-28T05:44:31.549Z,97.13
2023-01-28T05:47:26.156Z,97.33
2023-01-28T05:50:19.607Z,97.00
2023-01-28T05:53:09.131Z,97.34
2023-01-28T05:55:39.423Z,97.31
2023-01-28T05:58:07.936Z,96.88
2023-01-28T06:00:36.882Z,97.22
2023-01-28T06:03:06.549Z,96.69
2023-01-28T06:05:36.979Z,96.27
2023-01-28T06:08:06.517Z,96.80
2023-01-28T06:10:36.355Z,96.18
2023-01-28T06:13:05.771Z,95.61
2023-01-28T06:15:53.050Z,95.65
2023-01-28T06:18:44.780Z,95.41
2023-01-28T06:21:13.361Z,95.56
2023-01-28T06:23:42.193Z,95.33
2023-01-28T06:26:12.031Z,95.50
2023-01-28T06:28:42.886Z,95.15
2023-01-28T06:31:11.349Z,94.80
2023-01-28T06:33:39.848Z,94.85
2023-01-28T06:36:09.483Z,94.60
2023-01-28T06:38:37.894Z,94.47
2023-01-28T06:41:06.751Z,94.17
2023-01-28T06:43:37.244Z,93.96
2023-01-28T06:46:06.228Z,94.12
2023-01-28T06:48:34.827Z,94.73
2023-01-28T06:51:03.196Z,93.85
2023-01-28T06:53:31.608Z,93.80
2023-01-28T06:55:59.964Z,94.23
2023-01-28T06:58:28.305Z,93.69
2023-01-28T07:00:58.049Z,93.89
2023-01-28T07:03:26.543Z,93.77
2023-01-28T07:05:55.019Z,93.80
2023-01-28T07:08:23.469Z,93.67
2023-01-28T07:10:51.871Z,93.23
2023-01-28T07:13:20.358Z,93.34
2023-01-28T07:15:49.758Z,93.25
2023-01-28T07:18:19.703Z,92.84
2023-01-28T07:20:48.074Z,93.21
2023-01-28T07:23:16.561Z,92.78
2023-01-28T07:25:44.967Z,92.54
2023-01-28T07:28:13.308Z,92.87
2023-01-28T07:30:41.788Z,92.57
2023-01-28T07:33:10.153Z,92.64
2023-01-28T07:35:39.850Z,93.02
2023-01-28T07:38:08.193Z,92.72
2023-01-28T07:40:36.781Z,93.04
2023-01-28T07:43:07.211Z,93.10
2023-01-28T07:45:39.899Z,95.93
2023-01-28T07:48:11.563Z,96.10
2023-01-28T07:50:41.612Z,94.48
2023-01-28T07:53:12.384Z,93.27
2023-01-28T07:55:41.186Z,94.33
2023-01-28T07:58:12.948Z,94.40
2023-01-28T08:00:41.397Z,92.41
2023-01-28T08:03:15.780Z,91.22
2023-01-28T08:05:47.823Z,91.59
2023-01-28T08:08:16.802Z,91.92
2023-01-28T08:10:45.946Z,91.88
2023-01-28T08:13:15.760Z,91.85
2023-01-28T08:15:45.081Z,91.26
2023-01-28T08:18:15.780Z,91.34
2023-01-28T08:20:47.754Z,91.34
2023-01-28T08:23:17.923Z,91.05
2023-01-28T08:25:47.053Z,91.23
2023-01-28T08:28:17.641Z,90.96
2023-01-28T08:30:46.428Z,90.92
2023-01-28T08:33:18.008Z,91.19
2023-01-28T08:35:48.157Z,90.96
2023-01-28T08:38:17.728Z,91.04
2023-01-28T08:40:46.185Z,90.65
2023-01-28T08:43:14.602Z,90.51
2023-01-28T08:45:43.361Z,90.24
2023-01-28T08:48:16.889Z,89.96
2023-01-28T08:50:47.155Z,90.04
2023-01-28T08:53:18.960Z,89.58
2023-01-28T08:55:48.269Z,89.00
2023-01-28T08:58:18.383Z,89.46
2023-01-28T09:00:48.388Z,89.21
2023-01-28T09:03:17.373Z,89.47
2023-01-28T09:05:49.589Z,88.88
2023-01-28T09:08:18.116Z,88.90
2023-01-28T09:10:46.559Z,89.08
2023-01-28T09:13:17.136Z,88.82
2023-01-28T09:15:45.580Z,88.52
2023-01-28T09:18:14.097Z,88.85
2023-01-28T09:20:42.683Z,88.62
2023-01-28T09:23:12.993Z,88.62
2023-01-28T09:25:41.578Z,88.61
2023-01-28T09:28:10.132Z,88.89
2023-01-28T09:30:39.720Z,88.51
2023-01-28T09:33:09.294Z,88.85
2023-01-28T09:35:37.989Z,89.01
2023-01-28T09:38:06.527Z,88.93
2023-01-28T09:40:41.362Z,89.06
2023-01-28T09:43:54.722Z,89.56
2023-01-28T09:46:23.337Z,88.88
2023-01-28T09:48:54.462Z,89.20
2023-01-28T09:51:34.921Z,89.25
2023-01-28T09:54:08.722Z,89.21
2023-01-28T09:56:46.143Z,89.06
2023-01-28T09:59:20.824Z,88.80
2023-01-28T10:01:56.772Z,88.34
2023-01-28T10:04:45.749Z,88.68
2023-01-28T10:07:30.831Z,88.69
2023-01-28T10:10:06.182Z,88.99
2023-01-28T10:13:10.603Z,89.12
2023-01-28T10:15:56.869Z,88.91
2023-01-28T10:18:35.987Z,88.87
2023-01-28T10:21:12.076Z,88.58
2023-01-28T10:23:49.804Z,88.43
2023-01-28T10:26:25.144Z,87.78
2023-01-28T10:29:07.710Z,88.09
2023-01-28T10:31:41.615Z,87.59
2023-01-28T10:34:12.130Z,87.65
2023-01-28T10:36:40.937Z,87.18
2023-01-28T10:39:12.424Z,86.38
2023-01-28T10:41:52.031Z,86.31
2023-01-28T10:44:34.217Z,86.83
2023-01-28T10:47:11.424Z,86.54
2023-01-28T10:49:45.465Z,86.23
2023-01-28T10:52:14.987Z,86.01
2023-01-28T10:54:43.629Z,86.49
2023-01-28T10:57:15.524Z,85.71
2023-01-28T10:59:45.622Z,85.70
2023-01-28T11:02:38.346Z,84.66
2023-01-28T11:05:17.199Z,84.49
2023-01-28T11:07:45.739Z,84.64
2023-01-28T11:10:32.382Z,84.77
2023-01-28T11:13:03.407Z,83.94
2023-01-28T11:15:34.862Z,84.12
2023-01-28T11:18:09.623Z,83.58
2023-01-28T11:20:43.803Z,83.10
2023-01-28T11:23:22.734Z,81.83
2023-01-28T11:26:01.406Z,82.52
2023-01-28T11:28:31.021Z,83.66
2023-01-28T11:31:03.315Z,83.07
2023-01-28T11:33:38.586Z,83.04
2023-01-28T11:36:15.797Z,81.90
2023-01-28T11:38:56.103Z,82.48
2023-01-28T11:41:30.533Z,81.66
2023-01-28T11:44:01.837Z,81.11
2023-01-28T11:47:01.436Z,81.27
2023-01-28T11:49:50.730Z,80.91
2023-01-28T11:52:29.588Z,80.98
2023-01-28T11:55:26.029Z,80.89
2023-01-28T11:58:04.803Z,80.05
2023-01-28T12:00:41.770Z,79.74
2023-01-28T12:03:40.415Z,79.57
2023-01-28T12:06:36.811Z,78.58
2023-01-28T12:09:16.618Z,79.03
2023-01-28T12:12:12.607Z,79.26
2023-01-28T12:15:11.648Z,78.55
2023-01-28T12:17:57.971Z,78.74
2023-01-28T12:20:33.095Z,78.77
2023-01-28T12:23:21.855Z,79.21
2023-01-28T12:26:05.954Z,78.53
2023-01-28T12:28:55.909Z,78.58
2023-01-28T12:32:01.788Z,78.80
2023-01-28T12:34:55.004Z,77.35
2023-01-28T12:37:41.496Z,76.61
2023-01-28T12:40:34.725Z,76.63
2023-01-28T12:43:09.966Z,76.35
2023-01-28T12:45:42.774Z,76.22
2023-01-28T12:48:16.914Z,75.44
2023-01-28T12:50:50.455Z,75.83
2023-01-28T12:53:28.524Z,75.39
2023-01-28T12:56:07.640Z,75.13
2023-01-28T12:58:44.392Z,75.13
2023-01-28T13:01:21.310Z,74.05
2023-01-28T13:03:57.142Z,73.97
2023-01-28T13:06:33.213Z,73.80
2023-01-28T13:09:15.302Z,73.80
2023-01-28T13:11:44.296Z,73.67
2023-01-28T13:14:14.501Z,73.75
2023-01-28T13:16:43.067Z,73.85
2023-01-28T13:19:25.741Z,73.35
2023-01-28T13:21:54.370Z,72.88
2023-01-28T13:24:34.064Z,72.96
2023-01-28T13:27:16.404Z,72.99
2023-01-28T13:29:50.660Z,77.52
2023-01-28T13:32:35.779Z,74.83
2023-01-28T13:35:08.542Z,72.42
2023-01-28T13:37:41.382Z,71.49
2023-01-28T13:40:27.445Z,69.22
2023-01-28T13:43:03.673Z,69.29
2023-01-28T13:45:33.573Z,68.48
2023-01-28T13:48:26.402Z,69.49
2023-01-28T13:50:55.725Z,70.40
2023-01-28T13:53:37.968Z,70.77
2023-01-28T13:56:19.597Z,69.69
2023-01-28T13:59:35.748Z,69.96
2023-01-28T14:02:54.481Z,70.23
2023-01-28T14:05:52.378Z,69.44
2023-01-28T14:09:04.587Z,68.83
2023-01-28T14:12:31.483Z,68.58
2023-01-28T14:15:49.272Z,68.22
2023-01-28T14:18:27.733Z,68.45
2023-01-28T14:20:58.945Z,67.71
2023-01-28T14:23:31.264Z,68.06
2023-01-28T14:26:17.873Z,68.14
2023-01-28T14:29:00.550Z,68.04
2023-01-28T14:31:35.370Z,67.89
2023-01-28T14:34:12.578Z,67.29
2023-01-28T14:36:45.054Z,67.33
2023-01-28T14:39:19.184Z,67.31
2023-01-28T14:41:50.908Z,67.82
2023-01-28T14:44:33.118Z,67.66
2023-01-28T14:47:38.001Z,67.95
2023-01-28T14:50:49.031Z,68.02
2023-01-28T14:53:49.850Z,68.15
2023-01-28T14:56:35.732Z,68.11
2023-01-28T14:59:17.775Z,67.42
2023-01-28T15:01:50.345Z,66.81
2023-01-28T15:04:27.533Z,67.09
2023-01-28T15:06:56.533Z,66.70
2023-01-28T15:09:25.929Z,66.71
2023-01-28T15:11:58.122Z,66.87
2023-01-28T15:14:31.666Z,67.54
2023-01-28T15:17:02.759Z,67.09
2023-01-28T15:19:35.132Z,67.19
2023-01-28T15:22:06.833Z,67.90
2023-01-28T15:24:36.920Z,67.64
2023-01-28T15:27:05.648Z,67.85
2023-01-28T15:29:36.609Z,67.90
2023-01-28T15:32:07.237Z,67.27
2023-01-28T15:34:38.146Z,67.76
2023-01-28T15:37:06.677Z,68.07
2023-01-28T15:39:35.201Z,67.93
2023-01-28T15:42:07.346Z,67.04
2023-01-28T15:44:39.053Z,67.64
2023-01-28T15:47:17.713Z,66.71
2023-01-28T15:49:50.409Z,67.25
2023-01-28T15:52:19.808Z,67.89
2023-01-28T15:54:52.521Z,67.76
2023-01-28T15:57:22.468Z,67.93
2023-01-28T15:59:51.881Z,67.99
2023-01-28T16:02:24.337Z,67.71
2023-01-28T16:05:03.863Z,68.23
2023-01-28T16:07:36.040Z,68.38
2023-01-28T16:10:05.692Z,68.20
2023-01-28T16:12:34.274Z,67.61
2023-01-28T16:15:04.234Z,68.18
2023-01-28T16:17:42.768Z,68.14
2023-01-28T16:20:23.627Z,68.17
2023-01-28T16:22:53.221Z,68.20
2023-01-28T16:25:30.379Z,68.30
2023-01-28T16:28:00.435Z,68.90
2023-01-28T16:30:30.040Z,69.01
2023-01-28T16:33:00.422Z,67.57
2023-01-28T16:35:47.309Z,68.25
2023-01-28T16:38:19.885Z,68.62
2023-01-28T16:40:49.352Z,69.30
2023-01-28T16:43:18.952Z,68.27
2023-01-28T16:45:47.940Z,68.10
2023-01-28T16:48:17.886Z,68.35
2023-01-28T16:50:46.990Z,68.10
2023-01-28T16:53:22.606Z,69.07
2023-01-28T16:55:52.840Z,68.90
2023-01-28T16:58:25.534Z,69.93
2023-01-28T17:00:54.299Z,69.03
2023-01-28T17:03:24.977Z,68.46
2023-01-28T17:05:53.716Z,68.63
2023-01-28T17:08:22.200Z,68.57
2023-01-28T17:10:54.306Z,68.84
2023-01-28T17:13:23.201Z,68.80
2023-01-28T17:15:51.779Z,68.67
2023-01-28T17:18:20.250Z,68.67
2023-01-28T17:20:50.221Z,68.21
2023-01-28T17:23:22.905Z,68.18
2023-01-28T17:25:51.809Z,68.96
2023-01-28T17:28:20.629Z,69.39
2023-01-28T17:30:49.045Z,69.36
2023-01-28T17:33:17.460Z,69.87
2023-01-28T17:35:49.292Z,69.85
2023-01-28T17:38:17.942Z,69.11
2023-01-28T17:40:46.372Z,69.57
2023-01-28T17:43:14.750Z,69.24
2023-01-28T17:45:43.240Z,69.42
2023-01-28T17:48:12.617Z,69.46
2023-01-28T17:50:41.555Z,69.31
2023-01-28T17:53:12.151Z,69.92
2023-01-28T17:55:40.989Z,69.48
2023-01-28T17:58:09.342Z,68.94
2023-01-28T18:00:37.755Z,69.77
2023-01-28T18:03:06.334Z,69.75
2023-01-28T18:05:34.699Z,68.81
2023-01-28T18:08:03.095Z,68.78
2023-01-28T18:10:32.882Z,68.87
2023-01-28T18:13:01.422Z,69.05
2023-01-28T18:15:30.095Z,69.58
2023-01-28T18:17:58.560Z,69.66
2023-01-28T18:20:26.955Z,69.96
2023-01-28T18:22:55.451Z,69.81
2023-01-28T18:25:24.060Z,70.16
2023-01-28T18:27:54.192Z,70.90
2023-01-28T18:30:22.763Z,70.69
2023-01-28T18:32:51.419Z,71.23
2023-01-28T18:35:19.922Z,71.71
2023-01-28T18:37:48.380Z,71.68
2023-01-28T18:40:17.034Z,72.15
2023-01-28T18:42:45.497Z,71.96
2023-01-28T18:45:15.649Z,72.43
2023-01-28T18:47:44.160Z,72.63
2023-01-28T18:50:12.569Z,72.26
2023-01-28T18:52:41.039Z,72.54
2023-01-28T18:55:11.317Z,73.25
2023-01-28T18:57:39.753Z,88.88
2023-01-28T19:00:10.196Z,77.27
2023-01-28T19:02:40.162Z,75.92
2023-01-28T19:05:09.418Z,71.87
2023-01-28T19:07:38.046Z,71.97
2023-01-28T19:10:08.350Z,72.49
2023-01-28T19:12:36.760Z,72.88
2023-01-28T19:15:06.180Z,72.87
2023-01-28T19:17:35.549Z,73.48
2023-01-28T19:20:06.709Z,73.96
2023-01-28T19:22:35.142Z,73.93
2023-01-28T19:25:03.538Z,74.42
2023-01-28T19:27:31.945Z,74.34
2023-01-28T19:30:00.413Z,74.40
2023-01-28T19:32:28.977Z,74.62
2023-01-28T19:34:57.446Z,75.21
2023-01-28T19:37:27.390Z,75.64
2023-01-28T19:39:55.817Z,74.81
2023-01-28T19:42:24.357Z,74.98
2023-01-28T19:44:53.480Z,75.06
2023-01-28T19:47:22.189Z,73.90
2023-01-28T19:49:50.621Z,73.70
2023-01-28T19:52:19.088Z,73.48
2023-01-28T19:54:49.906Z,71.20
2023-01-28T19:57:18.605Z,71.51
2023-01-28T19:59:46.926Z,72.49
2023-01-28T20:02:15.464Z,72.61
2023-01-28T20:04:59.608Z,71.66
2023-01-28T20:07:29.021Z,71.92
2023-01-28T20:09:58.775Z,72.61
2023-01-28T20:12:27.238Z,72.40
2023-01-28T20:14:55.623Z,72.43
2023-01-28T20:17:24.087Z,72.49
2023-01-28T20:19:52.457Z,73.20
2023-01-28T20:22:20.870Z,73.69
2023-01-28T20:24:54.669Z,74.03
2023-01-28T20:27:25.186Z,74.40
2023-01-28T20:29:53.873Z,74.96
2023-01-28T20:32:23.193Z,74.13
2023-01-28T20:34:53.028Z,74.01
2023-01-28T20:37:21.919Z,73.99
2023-01-28T20:39:50.334Z,74.26
2023-01-28T20:42:18.753Z,73.84
2023-01-28T20:44:48.507Z,74.11
2023-01-28T20:47:16.898Z,73.35
2023-01-28T20:49:45.322Z,72.54
2023-01-28T20:52:13.693Z,71.32
2023-01-28T20:54:42.048Z,70.96
2023-01-28T20:57:10.407Z,70.48
2023-01-28T20:59:38.815Z,70.53
2023-01-28T21:02:10.034Z,71.26
2023-01-28T21:04:38.508Z,71.01
2023-01-28T21:07:06.939Z,70.74
2023-01-28T21:09:35.387Z,70.62
2023-01-28T21:12:03.796Z,70.78
2023-01-28T21:14:32.175Z,70.90
2023-01-28T21:17:00.754Z,70.20
2023-01-28T21:19:30.627Z,70.68
2023-01-28T21:21:58.991Z,70.59
2023-01-28T21:24:27.386Z,71.18
2023-01-28T21:26:55.935Z,71.14
2023-01-28T21:29:24.456Z,70.68
2023-01-28T21:31:52.916Z,71.13
2023-01-28T21:34:21.384Z,71.51
2023-01-28T21:36:51.328Z,71.13
2023-01-28T21:39:19.791Z,71.10
2023-01-28T21:41:49.170Z,71.38
2023-01-28T21:44:17.578Z,71.16
2023-01-28T21:46:47.737Z,71.24
2023-01-28T21:49:16.151Z,71.30
2023-01-28T21:51:47.205Z,71.52
2023-01-28T21:54:19.134Z,71.25
2023-01-28T21:56:49.796Z,71.41
2023-01-28T21:59:32.495Z,71.31
2023-01-28T22:02:02.758Z,72.26
2023-01-28T22:04:33.701Z,72.57
2023-01-28T22:07:03.561Z,72.55
2023-01-28T22:09:34.688Z,72.28
2023-01-28T22:12:05.123Z,72.08
2023-01-28T22:14:33.690Z,71.80
2023-01-28T22:17:02.204Z,72.21
2023-01-28T22:19:30.878Z,72.17
2023-01-28T22:21:59.281Z,72.65
2023-01-28T22:24:29.052Z,72.53
2023-01-28T22:27:01.809Z,72.40
2023-01-28T22:29:30.220Z,72.34
2023-01-28T22:31:58.723Z,72.74
2023-01-28T22:34:28.137Z,73.13
2023-01-28T22:36:56.628Z,72.77
2023-01-28T22:39:25.065Z,73.31
2023-01-28T22:41:53.506Z,73.38
2023-01-28T22:44:23.498Z,72.98
2023-01-28T22:46:51.949Z,73.12
2023-01-28T22:49:22.063Z,72.09
2023-01-28T22:51:50.516Z,72.58
2023-01-28T22:54:18.852Z,71.57
2023-01-28T22:56:47.258Z,71.76
2023-01-28T22:59:15.712Z,71.70
2023-01-28T23:01:45.483Z,71.38
2023-01-28T23:04:13.979Z,71.22
2023-01-28T23:06:42.413Z,71.28
2023-01-28T23:09:11.009Z,71.24
2023-01-28T23:11:39.786Z,71.92
2023-01-28T23:14:25.495Z,71.91
2023-01-28T23:17:12.881Z,72.52
2023-01-28T23:19:58.804Z,72.30
2023-01-28T23:22:50.579Z,71.89
2023-01-28T23:25:20.593Z,72.12
2023-01-28T23:27:49.256Z,72.69
2023-01-28T23:30:19.844Z,72.74
2023-01-28T23:32:50.848Z,72.65
2023-01-28T23:35:20.576Z,72.14
2023-01-28T23:37:49.628Z,72.03
2023-01-28T23:40:18.981Z,71.70
2023-01-28T23:42:50.546Z,71.55
2023-01-28T23:45:19.402Z,71.89
2023-01-28T23:47:49.447Z,71.55
2023-01-28T23:50:18.817Z,71.93
2023-01-28T23:52:47.495Z,71.83
2023-01-28T23:55:16.543Z,71.88
2023-01-28T23:57:44.959Z,71.12
